Time;durP1;ratioP1;P1;durP2;ratioP2;P2;SDS_P1;SDS_P2;PMS_P1;PMS_P2;Temp;Humidity;BMP_temperature;BMP_pressure;BME280_temperature;BME280_humidity;BME280_pressure;Samples;Min_cycle;Max_cycle;Signal;HPM_P1;HPM_P2
2024/04/15 00:00:21;;;;;;;19.63;2.83;;;14.80;80.60;;;;;;5545325;25;20025;-76
2024/04/15 00:02:47;;;;;;;9.85;2.50;;;14.80;81.40;;;;;;5546471;25;19997;-76
2024/04/15 00:05:14;;;;;;;13.63;2.92;;;14.80;80.70;;;;;;5546673;25;20001;-76
2024/04/15 00:07:40;;;;;;;13.65;2.65;;;14.70;80.50;;;;;;5545442;25;20011;-76
2024/04/15 00:10:07;;;;;;;12.52;2.85;;;14.70;80.20;;;;;;5553660;25;19996;-78
2024/04/15 00:12:33;;;;;;;10.57;2.95;;;14.70;79.70;;;;;;5535241;25;20603;-78
2024/04/15 00:14:59;;;;;;;12.65;2.78;;;14.70;79.20;;;;;;5541380;25;20072;-79
2024/04/15 00:17:24;;;;;;;10.05;2.55;;;14.60;78.90;;;;;;5522493;25;20073;-76
2024/04/15 00:19:53;;;;;;;9.38;2.63;;;14.60;78.60;;;;;;5541552;25;19993;-76
2024/04/15 00:22:19;;;;;;;11.20;2.63;;;14.60;78.30;;;;;;5550022;25;20016;-76
2024/04/15 00:24:46;;;;;;;13.98;2.80;;;14.70;78.20;;;;;;5545986;25;19996;-75
2024/04/15 00:27:13;;;;;;;5.88;2.30;;;14.60;78.10;;;;;;5551570;25;20015;-76
2024/04/15 00:29:39;;;;;;;7.95;2.53;;;14.60;78.20;;;;;;5555392;25;20001;-76
2024/04/15 00:32:05;;;;;;;11.10;2.50;;;14.60;78.30;;;;;;5554592;25;20008;-75
2024/04/15 00:34:32;;;;;;;15.25;2.70;;;14.50;78.30;;;;;;5553859;25;20009;-76
2024/04/15 00:36:58;;;;;;;8.00;2.05;;;14.50;78.20;;;;;;5556041;25;20448;-76
2024/04/15 00:39:26;;;;;;;14.07;2.28;;;14.50;78.40;;;;;;5555438;25;19996;-76
2024/04/15 00:41:52;;;;;;;14.52;2.35;;;14.40;78.80;;;;;;5547115;25;19997;-76
2024/04/15 00:44:17;;;;;;;11.50;2.30;;;14.40;79.30;;;;;;5539545;25;19997;-76
2024/04/15 00:46:43;;;;;;;9.45;1.90;;;14.30;80.10;;;;;;5556708;25;20009;-75
2024/04/15 00:49:11;;;;;;;8.93;2.42;;;14.20;80.40;;;;;;5537521;25;20001;-76
2024/04/15 00:51:39;;;;;;;7.72;1.85;;;14.20;80.90;;;;;;5548724;25;20435;-76
2024/04/15 00:54:06;;;;;;;6.18;1.95;;;14.10;81.10;;;;;;5556329;25;19997;-76
2024/04/15 00:56:32;;;;;;;7.63;1.98;;;14.10;81.40;;;;;;5538366;25;19997;-76
2024/04/15 00:58:59;;;;;;;10.18;1.98;;;14.00;81.60;;;;;;5551483;25;19993;-76
2024/04/15 01:01:25;;;;;;;12.45;3.03;;;14.00;81.80;;;;;;5554002;25;19992;-76
2024/04/15 01:03:51;;;;;;;8.48;2.20;;;14.00;81.60;;;;;;5551594;25;20478;-75
2024/04/15 01:06:17;;;;;;;8.82;2.05;;;13.90;81.20;;;;;;5550712;25;19997;-76
2024/04/15 01:08:43;;;;;;;7.43;2.28;;;14.00;81.00;;;;;;5546729;25;20008;-76
2024/04/15 01:11:09;;;;;;;7.13;2.28;;;13.90;80.70;;;;;;5540120;25;20004;-76
2024/04/15 01:13:35;;;;;;;15.07;2.10;;;14.00;80.60;;;;;;5537042;25;19997;-76
2024/04/15 01:16:01;;;;;;;19.02;2.22;;;14.00;80.60;;;;;;5554204;25;20007;-76
2024/04/15 01:18:27;;;;;;;17.25;2.15;;;14.00;80.60;;;;;;5549146;25;19997;-76
2024/04/15 01:20:57;;;;;;;13.82;2.38;;;13.90;80.50;;;;;;5549418;25;20796;-76
2024/04/15 01:23:23;;;;;;;7.43;2.03;;;13.90;80.20;;;;;;5548799;25;19993;-76
2024/04/15 01:25:50;;;;;;;10.38;1.88;;;13.90;80.00;;;;;;5544200;25;20436;-76
2024/04/15 01:28:19;;;;;;;12.40;1.95;;;13.90;79.90;;;;;;5533110;25;20033;-76
2024/04/15 01:30:45;;;;;;;14.85;1.98;;;13.90;79.70;;;;;;5533612;25;19997;-76
2024/04/15 01:33:11;;;;;;;7.88;2.00;;;13.90;79.70;;;;;;5551780;25;20009;-76
2024/04/15 01:35:37;;;;;;;15.75;2.50;;;13.80;79.70;;;;;;5530069;25;20001;-76
2024/04/15 01:38:03;;;;;;;11.48;2.72;;;13.80;79.70;;;;;;5543570;25;19993;-75
2024/04/15 01:40:29;;;;;;;8.75;1.80;;;13.80;79.70;;;;;;5524097;25;20024;-76
2024/04/15 01:42:54;;;;;;;8.52;2.00;;;13.80;79.60;;;;;;5543185;25;20007;-76
2024/04/15 01:45:21;;;;;;;10.68;2.10;;;13.80;79.60;;;;;;5548836;25;19997;-75
2024/04/15 01:47:47;;;;;;;7.13;1.88;;;13.70;79.60;;;;;;5537958;25;20000;-75
2024/04/15 01:50:17;;;;;;;13.43;2.47;;;13.70;79.60;;;;;;5555964;25;20001;-76
2024/04/15 01:52:46;;;;;;;8.48;2.55;;;13.70;79.50;;;;;;5532926;25;20011;-75
2024/04/15 01:55:12;;;;;;;12.18;2.35;;;13.70;79.70;;;;;;5537507;25;19998;-76
2024/04/15 01:57:37;;;;;;;8.45;2.08;;;13.70;79.80;;;;;;5551615;25;20003;-75
2024/04/15 02:00:05;;;;;;;8.43;2.05;;;13.60;80.00;;;;;;5543927;25;20344;-75
2024/04/15 02:02:37;;;;;;;12.98;2.25;;;13.60;80.30;;;;;;5547829;25;20028;-75
2024/04/15 02:05:05;;;;;;;9.85;2.65;;;13.50;80.30;;;;;;5544828;25;20340;-76
2024/04/15 02:07:31;;;;;;;9.20;1.90;;;13.50;80.60;;;;;;5528664;25;20033;-76
2024/04/15 02:09:57;;;;;;;21.65;2.75;;;13.50;80.80;;;;;;5552485;25;20016;-76
2024/04/15 02:12:22;;;;;;;11.77;2.05;;;13.40;81.10;;;;;;5542645;25;20001;-76
2024/04/15 02:14:48;;;;;;;9.38;1.98;;;13.40;81.20;;;;;;5552822;25;20060;-76
2024/04/15 02:17:14;;;;;;;6.50;2.25;;;13.40;81.20;;;;;;5551216;25;20036;-75
2024/04/15 02:19:39;;;;;;;9.98;2.33;;;13.40;81.30;;;;;;5534222;25;20011;-76
2024/04/15 02:22:05;;;;;;;10.85;2.30;;;13.40;81.10;;;;;;5554954;25;20015;-75
2024/04/15 02:24:31;;;;;;;15.68;2.97;;;13.40;81.10;;;;;;5546588;25;20004;-75
2024/04/15 02:26:56;;;;;;;14.77;2.90;;;13.40;81.20;;;;;;5549898;25;19992;-76
2024/04/15 02:29:22;;;;;;;21.15;3.05;;;13.30;81.30;;;;;;5550072;25;20004;-76
2024/04/15 02:31:48;;;;;;;9.48;2.70;;;13.30;81.80;;;;;;5554987;25;20102;-75
2024/04/15 02:34:13;;;;;;;12.18;2.83;;;13.20;82.30;;;;;;5539972;25;20007;-76
2024/04/15 02:36:39;;;;;;;8.68;2.30;;;13.10;82.90;;;;;;5543364;25;19997;-75
2024/04/15 02:39:04;;;;;;;7.95;2.17;;;13.00;83.00;;;;;;5536207;25;19997;-75
2024/04/15 02:41:30;;;;;;;11.02;2.83;;;13.00;83.50;;;;;;5534885;25;20100;-76
2024/04/15 02:43:55;;;;;;;13.98;2.58;;;12.90;83.40;;;;;;5547290;25;20005;-75
2024/04/15 02:46:21;;;;;;;13.48;2.58;;;12.90;83.50;;;;;;5549338;25;20016;-76
2024/04/15 02:48:47;;;;;;;14.73;2.65;;;12.90;83.80;;;;;;5554809;25;20000;-75
2024/04/15 02:51:12;;;;;;;12.75;2.13;;;12.80;84.20;;;;;;5544627;25;20014;-75
2024/04/15 02:53:38;;;;;;;13.60;2.00;;;12.90;84.30;;;;;;5536377;25;19998;-76
2024/04/15 02:56:04;;;;;;;15.90;2.42;;;12.80;84.40;;;;;;5554250;25;20004;-76
2024/04/15 02:58:30;;;;;;;11.05;2.22;;;12.80;84.70;;;;;;5551166;25;20792;-76
2024/04/15 03:00:59;;;;;;;8.32;1.83;;;12.70;84.90;;;;;;5541046;25;20005;-76
2024/04/15 03:03:24;;;;;;;8.88;1.80;;;12.80;85.50;;;;;;5544725;25;20467;-76
2024/04/15 03:05:50;;;;;;;43.45;4.30;;;12.70;85.00;;;;;;5557368;25;20011;-76
2024/04/15 03:08:15;;;;;;;11.25;2.20;;;12.80;84.70;;;;;;5549628;25;19997;-75
2024/04/15 03:10:41;;;;;;;15.70;2.42;;;12.80;84.40;;;;;;5556190;25;19996;-76
2024/04/15 03:13:07;;;;;;;10.32;2.55;;;12.90;84.10;;;;;;5553836;25;19997;-76
2024/04/15 03:15:32;;;;;;;44.72;3.55;;;12.90;83.70;;;;;;5552086;25;19997;-76
2024/04/15 03:17:59;;;;;;;8.25;2.00;;;13.00;83.50;;;;;;5546616;25;20001;-75
2024/04/15 03:20:28;;;;;;;8.30;1.90;;;13.00;84.10;;;;;;5546254;25;20009;-76
2024/04/15 03:22:54;;;;;;;11.73;1.90;;;13.00;83.70;;;;;;5548051;25;20011;-76
2024/04/15 03:25:20;;;;;;;11.98;2.33;;;13.00;84.20;;;;;;5547108;25;20005;-76
2024/04/15 03:27:49;;;;;;;9.35;2.25;;;12.90;84.30;;;;;;5556301;25;20001;-75
2024/04/15 03:30:16;;;;;;;16.20;1.95;;;12.90;84.70;;;;;;5551201;25;20015;-76
2024/04/15 03:32:42;;;;;;;10.60;1.90;;;12.90;84.90;;;;;;5540375;25;20011;-76
2024/04/15 03:35:14;;;;;;;4.00;1.30;;;12.80;85.00;;;;;;5541282;25;20008;-76
2024/04/15 03:37:40;;;;;;;9.23;2.85;;;12.80;85.20;;;;;;5532407;25;19997;-76
2024/04/15 03:40:07;;;;;;;6.93;2.00;;;12.80;85.50;;;;;;5545756;25;20001;-76
2024/04/15 03:42:32;;;;;;;10.20;1.90;;;12.80;85.20;;;;;;5542643;25;20047;-75
2024/04/15 03:44:58;;;;;;;11.23;3.25;;;12.80;85.00;;;;;;5537682;25;20008;-76
2024/04/15 03:47:24;;;;;;;42.17;2.90;;;12.90;84.90;;;;;;5531280;25;19998;-76
2024/04/15 03:49:49;;;;;;;6.20;1.60;;;12.90;84.80;;;;;;5555014;25;20000;-76
2024/04/15 03:52:15;;;;;;;8.40;1.90;;;12.90;84.50;;;;;;5541533;25;20073;-77
2024/04/15 03:54:40;;;;;;;15.80;2.40;;;13.00;85.20;;;;;;5531668;25;20457;-76
2024/04/15 03:57:11;;;;;;;13.15;2.45;;;12.90;84.40;;;;;;5540824;25;20069;-76
2024/04/15 03:59:36;;;;;;;10.18;2.17;;;13.00;84.20;;;;;;5534375;25;20009;-76
2024/04/15 04:02:05;;;;;;;66.43;4.82;;;13.00;84.00;;;;;;5544388;25;20448;-76
2024/04/15 04:04:31;;;;;;;66.13;4.40;;;13.00;83.80;;;;;;5549022;25;20012;-76
2024/04/15 04:06:58;;;;;;;8.65;2.20;;;13.00;83.80;;;;;;5530275;25;19997;-76
2024/04/15 04:09:23;;;;;;;10.07;2.00;;;13.00;83.80;;;;;;5529490;25;20012;-76
2024/04/15 04:11:49;;;;;;;12.77;2.33;;;13.00;83.80;;;;;;5543438;25;20014;-75
2024/04/15 04:14:15;;;;;;;5.10;1.50;;;13.00;83.90;;;;;;5541758;25;19999;-76
2024/04/15 04:16:42;;;;;;;8.88;2.00;;;13.00;84.00;;;;;;5541697;25;20008;-75
2024/04/15 04:19:08;;;;;;;13.68;3.05;;;13.00;84.30;;;;;;5531361;25;19997;-76
2024/04/15 04:21:33;;;;;;;10.57;2.22;;;12.90;85.00;;;;;;5545502;25;20005;-76
2024/04/15 04:23:59;;;;;;;13.15;1.92;;;12.90;84.40;;;;;;5540834;25;20068;-81
2024/04/15 04:26:25;;;;;;;56.10;3.60;;;12.90;84.30;;;;;;5544038;25;20001;-77
2024/04/15 04:28:50;;;;;;;64.38;4.40;;;12.90;84.60;;;;;;5546526;25;20392;-76
2024/04/15 04:31:17;;;;;;;10.93;2.08;;;13.00;84.40;;;;;;5553163;25;20491;-78
2024/04/15 04:33:43;;;;;;;128.88;7.03;;;13.00;84.40;;;;;;5543392;25;20863;-77
2024/04/15 04:36:08;;;;;;;10.18;2.17;;;13.00;84.30;;;;;;5550987;25;19996;-77
2024/04/15 04:38:34;;;;;;;63.15;4.80;;;13.00;84.20;;;;;;5536305;25;20033;-78
2024/04/15 04:41:01;;;;;;;8.60;1.80;;;13.00;84.10;;;;;;5541902;25;19997;-77
2024/04/15 04:43:27;;;;;;;7.45;1.95;;;13.10;84.10;;;;;;5547663;25;20004;-77
2024/04/15 04:45:53;;;;;;;5.82;2.05;;;13.00;84.00;;;;;;5537398;25;19997;-77
2024/04/15 04:48:20;;;;;;;12.57;2.80;;;13.00;84.00;;;;;;5547124;25;20033;-78
2024/04/15 04:50:46;;;;;;;43.05;3.15;;;13.00;84.00;;;;;;5555722;25;20005;-78
2024/04/15 04:53:12;;;;;;;15.85;2.72;;;13.10;84.10;;;;;;5556423;25;20467;-77
2024/04/15 04:55:38;;;;;;;4.72;1.83;;;13.00;84.10;;;;;;5547109;25;19996;-76
2024/04/15 04:58:06;;;;;;;56.30;3.35;;;12.90;84.10;;;;;;5545042;25;20014;-77
2024/04/15 05:00:32;;;;;;;59.63;3.47;;;12.90;84.10;;;;;;5555244;25;20790;-77
2024/04/15 05:02:58;;;;;;;42.83;3.40;;;12.80;84.10;;;;;;5528249;25;20008;-78
2024/04/15 05:05:24;;;;;;;64.00;4.13;;;12.80;84.10;;;;;;5550395;25;20028;-77
2024/04/15 05:07:50;;;;;;;7.45;2.08;;;12.80;84.30;;;;;;5540997;25;20459;-77
2024/04/15 05:10:16;;;;;;;9.70;2.50;;;12.70;84.30;;;;;;5547922;25;20374;-76
2024/04/15 05:12:41;;;;;;;66.30;4.38;;;12.70;84.30;;;;;;5547124;25;20050;-76
2024/04/15 05:15:07;;;;;;;63.05;3.85;;;12.60;84.30;;;;;;5545168;25;20415;-75
2024/04/15 05:17:34;;;;;;;44.15;3.40;;;12.60;84.30;;;;;;5523147;25;20481;-76
2024/04/15 05:20:00;;;;;;;59.40;3.20;;;12.60;84.30;;;;;;5543678;25;20481;-76
2024/04/15 05:22:25;;;;;;;9.50;1.90;;;12.60;84.40;;;;;;5544169;25;20005;-76
2024/04/15 05:24:56;;;;;;;10.45;2.28;;;12.50;84.40;;;;;;5540748;25;20428;-76
2024/04/15 05:27:22;;;;;;;19.95;2.25;;;12.50;84.40;;;;;;5544387;25;20032;-76
2024/04/15 05:29:47;;;;;;;231.23;16.88;;;12.50;84.50;;;;;;5544605;25;19996;-76
2024/04/15 05:32:13;;;;;;;65.95;8.32;;;12.40;84.40;;;;;;5541293;25;20084;-76
2024/04/15 05:34:38;;;;;;;11.32;2.60;;;12.40;84.50;;;;;;5536034;25;20048;-74
2024/04/15 05:37:07;;;;;;;58.38;6.10;;;12.30;84.60;;;;;;5547790;25;19993;-77
2024/04/15 05:39:32;;;;;;;61.33;4.15;;;12.30;84.70;;;;;;5541463;25;20464;-77
2024/04/15 05:41:58;;;;;;;45.00;5.35;;;12.30;84.90;;;;;;5539974;25;20001;-76
2024/04/15 05:44:24;;;;;;;145.85;5.65;;;12.30;85.00;;;;;;5536672;25;20008;-76
2024/04/15 05:46:51;;;;;;;142.13;15.30;;;12.30;85.00;;;;;;5548498;25;20009;-76
2024/04/15 05:49:17;;;;;;;9.15;2.30;;;12.30;85.10;;;;;;5530683;25;20357;-76
2024/04/15 05:51:45;;;;;;;8.50;1.67;;;12.30;85.10;;;;;;5529543;25;20009;-76
2024/04/15 05:54:10;;;;;;;65.68;3.88;;;12.20;85.20;;;;;;5544168;25;20001;-76
2024/04/15 05:56:36;;;;;;;43.30;4.68;;;12.20;85.40;;;;;;5545948;25;20077;-75
2024/04/15 05:59:02;;;;;;;7.35;2.17;;;12.10;85.40;;;;;;5548181;25;20368;-75
2024/04/15 06:01:27;;;;;;;49.80;3.95;;;12.10;85.50;;;;;;5542210;25;20340;-75
2024/04/15 06:03:53;;;;;;;202.52;39.33;;;12.10;85.70;;;;;;5550869;25;20072;-79
2024/04/15 06:06:19;;;;;;;54.25;4.20;;;12.10;85.80;;;;;;5540772;25;20031;-76
2024/04/15 06:08:44;;;;;;;126.50;9.55;;;12.10;85.90;;;;;;5538780;25;19993;-76
2024/04/15 06:11:10;;;;;;;179.63;16.48;;;12.10;86.20;;;;;;5534937;25;20504;-76
2024/04/15 06:13:35;;;;;;;68.85;9.07;;;12.00;86.40;;;;;;5518284;25;20077;-76
2024/04/15 06:16:01;;;;;;;38.70;4.90;;;12.00;87.20;;;;;;5540875;25;19996;-76
2024/04/15 06:18:27;;;;;;;115.55;13.65;;;12.00;86.90;;;;;;5526990;25;20069;-75
2024/04/15 06:20:52;;;;;;;140.98;28.80;;;11.90;87.10;;;;;;5544083;25;20011;-75
2024/04/15 06:23:18;;;;;;;182.10;14.25;;;11.90;87.40;;;;;;5542070;25;20001;-74
2024/04/15 06:25:50;;;;;;;100.18;9.95;;;11.90;87.70;;;;;;5543845;25;20027;-75
2024/04/15 06:28:15;;;;;;;328.67;49.88;;;11.80;88.00;;;;;;5552753;25;20037;-75
2024/04/15 06:30:41;;;;;;;187.80;8.25;;;11.80;88.50;;;;;;5531182;25;20135;-71
2024/04/15 06:33:06;;;;;;;181.88;10.73;;;11.70;88.80;;;;;;5544602;25;20171;-76
2024/04/15 06:35:32;;;;;;;4.10;2.13;;;11.70;89.10;;;;;;5531996;25;20023;-76
2024/04/15 06:37:58;;;;;;;8.00;2.28;;;11.70;89.30;;;;;;5549496;25;19996;-77
2024/04/15 06:40:24;;;;;;;103.63;6.03;;;11.70;89.70;;;;;;5542343;25;20420;-77
2024/04/15 06:42:50;;;;;;;146.60;11.02;;;11.70;90.00;;;;;;5548951;25;19997;-77
2024/04/15 06:45:15;;;;;;;476.23;28.75;;;11.60;90.10;;;;;;5544859;25;20076;-76
2024/04/15 06:47:41;;;;;;;212.45;22.25;;;11.60;90.30;;;;;;5550832;25;20001;-75
2024/04/15 06:50:07;;;;;;;8.30;2.22;;;11.70;90.40;;;;;;5551659;25;19997;-76
2024/04/15 06:52:33;;;;;;;106.10;10.15;;;11.60;90.40;;;;;;5555795;25;20020;-75
2024/04/15 06:54:58;;;;;;;146.57;7.43;;;11.60;90.50;;;;;;5552841;25;20040;-74
2024/04/15 06:57:24;;;;;;;160.27;10.77;;;11.60;90.60;;;;;;5556589;25;20013;-74
2024/04/15 06:59:52;;;;;;;17.67;2.13;;;11.70;90.80;;;;;;5535135;25;20007;-74
2024/04/15 07:02:21;;;;;;;110.45;4.90;;;11.70;90.80;;;;;;5524666;25;20038;-74
2024/04/15 07:04:51;;;;;;;24.75;2.78;;;11.70;90.90;;;;;;5516953;25;20008;-74
2024/04/15 07:07:18;;;;;;;4.18;2.20;;;11.70;91.00;;;;;;5524475;25;20012;-74
2024/04/15 07:09:43;;;;;;;7.65;2.28;;;11.70;91.10;;;;;;5519860;25;20050;-74
2024/04/15 07:12:09;;;;;;;55.88;4.57;;;11.70;91.20;;;;;;5517790;25;19997;-74
2024/04/15 07:14:36;;;;;;;7.80;2.47;;;11.70;91.20;;;;;;5538755;25;20340;-74
2024/04/15 07:17:02;;;;;;;7.32;2.60;;;11.70;91.30;;;;;;5517930;25;20079;-74
2024/04/15 07:19:27;;;;;;;56.67;3.85;;;11.70;91.30;;;;;;5515112;25;20020;-74
2024/04/15 07:21:53;;;;;;;96.20;7.57;;;11.70;91.40;;;;;;5537071;25;20447;-74
2024/04/15 07:24:18;;;;;;;111.78;10.88;;;11.70;91.40;;;;;;5521732;25;20366;-74
2024/04/15 07:26:44;;;;;;;4.95;2.25;;;11.80;91.50;;;;;;5544949;25;20068;-73
2024/04/15 07:29:10;;;;;;;4.22;2.08;;;11.80;91.50;;;;;;5545784;25;20001;-74
2024/04/15 07:31:35;;;;;;;119.10;5.45;;;11.80;91.50;;;;;;5541159;25;20803;-74
2024/04/15 07:34:01;;;;;;;29.73;2.65;;;11.90;91.60;;;;;;5541338;25;20008;-74
2024/04/15 07:36:28;;;;;;;115.07;6.78;;;11.90;91.60;;;;;;5527595;25;20009;-74
2024/04/15 07:38:54;;;;;;;209.32;18.92;;;11.90;91.60;;;;;;5541863;25;20001;-74
2024/04/15 07:41:19;;;;;;;11.23;3.20;;;12.00;91.70;;;;;;5522887;25;20872;-74
2024/04/15 07:43:45;;;;;;;110.07;7.65;;;12.00;91.70;;;;;;5520375;25;20009;-74
2024/04/15 07:46:11;;;;;;;111.00;13.35;;;12.00;91.60;;;;;;5553499;25;20000;-74
2024/04/15 07:48:37;;;;;;;19.98;3.08;;;12.00;91.60;;;;;;5544083;25;20459;-74
2024/04/15 07:51:03;;;;;;;10.10;2.22;;;12.10;91.60;;;;;;5529552;25;19997;-74
2024/04/15 07:53:29;;;;;;;144.43;7.22;;;12.10;91.60;;;;;;5544831;25;20008;-74
2024/04/15 07:55:54;;;;;;;213.93;19.10;;;12.10;91.60;;;;;;5518933;25;20364;-74
2024/04/15 07:58:20;;;;;;;77.63;6.15;;;12.20;91.50;;;;;;5536590;25;19997;-74
2024/04/15 08:00:45;;;;;;;307.25;23.90;;;12.20;91.50;;;;;;5541479;25;20001;-74
2024/04/15 08:03:11;;;;;;;111.25;4.75;;;12.20;91.50;;;;;;5521342;25;20011;-74
2024/04/15 08:05:37;;;;;;;12.88;3.15;;;12.30;91.50;;;;;;5541530;25;20028;-74
2024/04/15 08:08:04;;;;;;;123.07;4.45;;;12.20;91.40;;;;;;5533256;25;20000;-74
2024/04/15 08:10:29;;;;;;;8.32;1.95;;;12.30;91.40;;;;;;5531752;25;20951;-74
2024/04/15 08:12:55;;;;;;;9.75;2.90;;;12.30;91.50;;;;;;5540410;25;20019;-74
2024/04/15 08:15:21;;;;;;;14.63;2.75;;;12.30;91.50;;;;;;5539721;25;20008;-74
2024/04/15 08:17:47;;;;;;;34.92;7.95;;;12.40;91.40;;;;;;5519276;25;20012;-74
2024/04/15 08:20:12;;;;;;;7.70;2.95;;;12.40;91.30;;;;;;5524909;25;20013;-74
2024/04/15 08:22:38;;;;;;;18.45;2.85;;;12.50;91.20;;;;;;5526939;25;20324;-74
2024/04/15 08:25:08;;;;;;;40.75;3.63;;;12.40;91.10;;;;;;5525070;25;20318;-74
2024/04/15 08:27:35;;;;;;;44.40;3.05;;;12.50;91.10;;;;;;5541968;25;20009;-74
2024/04/15 08:30:01;;;;;;;10.50;3.08;;;12.50;90.90;;;;;;5522792;25;19998;-74
2024/04/15 08:32:27;;;;;;;203.45;16.52;;;12.60;91.10;;;;;;5520552;25;20008;-74
2024/04/15 08:34:54;;;;;;;49.78;3.50;;;12.60;90.90;;;;;;5516594;25;20357;-74
2024/04/15 08:37:19;;;;;;;11.45;2.60;;;12.70;90.70;;;;;;5538026;25;20654;-74
2024/04/15 08:39:48;;;;;;;124.47;3.90;;;12.70;90.70;;;;;;5521004;25;20013;-74
2024/04/15 08:42:47;;;;;;;6.95;2.15;;;12.70;90.50;;;;;;5519147;25;20033;-74
2024/04/15 08:45:19;;;;;;;6.85;2.35;;;12.70;90.40;;;;;;5544301;25;20449;-74
2024/04/15 08:47:50;;;;;;;8.30;2.15;;;12.80;90.40;;;;;;5519734;25;20448;-73
2024/04/15 08:50:16;;;;;;;42.47;3.15;;;12.70;90.10;;;;;;5520019;25;19997;-74
2024/04/15 08:52:42;;;;;;;113.60;3.80;;;12.80;89.80;;;;;;5543818;25;20495;-74
2024/04/15 08:55:10;;;;;;;45.20;5.43;;;12.80;89.40;;;;;;5519188;25;20008;-74
2024/04/15 08:57:37;;;;;;;12.93;2.90;;;12.80;89.10;;;;;;5531298;25;19996;-74
2024/04/15 09:00:04;;;;;;;49.63;3.38;;;12.90;88.90;;;;;;5529091;25;20098;-74
2024/04/15 09:02:32;;;;;;;575.13;12.50;;;12.90;88.90;;;;;;5538182;25;20009;-74
2024/04/15 09:04:59;;;;;;;69.95;4.70;;;12.90;88.70;;;;;;5521828;25;20012;-74
2024/04/15 09:07:25;;;;;;;4.10;1.80;;;12.90;88.80;;;;;;5523190;25;19997;-74
2024/04/15 09:09:51;;;;;;;43.55;15.20;;;13.00;87.90;;;;;;5525349;25;20345;-74
2024/04/15 09:12:16;;;;;;;1201.53;42.05;;;13.00;88.00;;;;;;5520152;25;20002;-74
2024/04/15 09:14:42;;;;;;;165.65;6.97;;;13.00;87.40;;;;;;5518397;25;19998;-74
2024/04/15 09:17:11;;;;;;;109.85;4.65;;;13.10;88.00;;;;;;5518378;25;20008;-74
2024/04/15 09:19:41;;;;;;;103.57;10.27;;;13.10;88.40;;;;;;5529460;25;20441;-74
2024/04/15 09:22:07;;;;;;;16.75;2.63;;;13.20;88.50;;;;;;5527962;25;19994;-74
2024/04/15 09:24:33;;;;;;;8.07;2.03;;;13.10;88.00;;;;;;5532277;25;20113;-74
2024/04/15 09:27:00;;;;;;;209.23;7.03;;;13.20;87.50;;;;;;5529154;25;20009;-74
2024/04/15 09:29:26;;;;;;;14.05;2.50;;;13.20;87.50;;;;;;5532843;25;20401;-74
2024/04/15 09:31:51;;;;;;;4.97;2.10;;;13.20;88.00;;;;;;5526997;25;20045;-74
2024/04/15 09:34:17;;;;;;;10.05;2.22;;;13.30;87.70;;;;;;5520194;25;20001;-74
2024/04/15 09:36:56;;;;;;;79.68;2.63;;;13.30;87.70;;;;;;5550093;25;20318;-74
2024/04/15 09:39:24;;;;;;;6.40;1.83;;;13.30;87.00;;;;;;5553913;25;19996;-74
2024/04/15 09:41:51;;;;;;;157.73;4.18;;;13.30;87.10;;;;;;5556566;25;20001;-73
2024/04/15 09:44:19;;;;;;;86.45;3.22;;;13.30;86.00;;;;;;5554465;25;19996;-74
2024/04/15 09:46:45;;;;;;;8.43;2.45;;;13.40;86.40;;;;;;5532065;25;20007;-74
2024/04/15 09:49:13;;;;;;;98.32;3.53;;;13.40;86.20;;;;;;5540849;25;20406;-74
2024/04/15 09:51:41;;;;;;;97.68;5.38;;;13.50;86.40;;;;;;5544409;25;20010;-74
2024/04/15 09:54:10;;;;;;;230.70;7.47;;;13.50;86.40;;;;;;5530581;25;19998;-74
2024/04/15 09:56:43;;;;;;;309.08;10.15;;;13.50;86.00;;;;;;5535275;25;20013;-74
2024/04/15 09:59:13;;;;;;;81.07;2.53;;;13.60;85.90;;;;;;5531047;25;20012;-74
2024/04/15 10:01:39;;;;;;;13.30;1.95;;;13.60;85.10;;;;;;5542747;25;20016;-74
2024/04/15 10:04:21;;;;;;;355.33;6.32;;;13.60;84.90;;;;;;5519715;25;19998;-74
2024/04/15 10:06:51;;;;;;;4.93;1.95;;;13.70;84.80;;;;;;5518765;25;19998;-74
2024/04/15 10:09:18;;;;;;;2.17;1.40;;;13.70;84.60;;;;;;5517263;25;19997;-74
2024/04/15 10:11:48;;;;;;;768.25;13.75;;;13.70;85.10;;;;;;5518542;25;20444;-74
2024/04/15 10:14:18;;;;;;;2.72;1.50;;;13.70;84.60;;;;;;5520862;25;20073;-74
2024/04/15 10:16:48;;;;;;;4.50;1.65;;;13.80;84.20;;;;;;5520947;25;20068;-74
2024/04/15 10:19:24;;;;;;;13.23;1.65;;;13.80;84.40;;;;;;5514781;25;20031;-74
2024/04/15 10:21:50;;;;;;;385.63;7.43;;;13.90;84.60;;;;;;5520322;25;20001;-74
2024/04/15 10:24:16;;;;;;;66.43;3.97;;;13.90;84.60;;;;;;5519489;25;20054;-74
2024/04/15 10:26:43;;;;;;;92.18;3.55;;;14.00;84.40;;;;;;5539583;25;20004;-74
2024/04/15 10:29:12;;;;;;;206.45;5.50;;;14.00;84.60;;;;;;5527809;25;21000;-74
2024/04/15 10:31:41;;;;;;;161.77;10.80;;;14.00;84.50;;;;;;5537924;25;19996;-74
2024/04/15 10:34:06;;;;;;;79.50;2.95;;;14.10;84.60;;;;;;5535464;25;19997;-74
2024/04/15 10:36:35;;;;;;;3.53;1.42;;;14.10;84.30;;;;;;5520631;25;20020;-74
2024/04/15 10:39:04;;;;;;;184.68;7.40;;;14.10;84.30;;;;;;5542687;25;20001;-74
2024/04/15 10:41:30;;;;;;;1.60;1.00;;;14.20;84.00;;;;;;5540739;25;20008;-74
2024/04/15 10:43:55;;;;;;;98.20;4.40;;;14.10;83.90;;;;;;5546036;25;20001;-74
2024/04/15 10:46:23;;;;;;;28.70;1.88;;;14.20;84.20;;;;;;5544315;25;20525;-74
2024/04/15 10:48:48;;;;;;;121.15;4.20;;;14.20;84.00;;;;;;5539649;25;20331;-74
2024/04/15 10:51:14;;;;;;;197.18;7.22;;;14.30;83.40;;;;;;5549773;25;19993;-74
2024/04/15 10:53:41;;;;;;;644.55;10.55;;;14.30;84.10;;;;;;5528203;25;20031;-74
2024/04/15 10:56:09;;;;;;;27.23;1.73;;;14.30;83.20;;;;;;5519647;25;20441;-74
2024/04/15 10:58:36;;;;;;;736.40;16.10;;;14.30;83.10;;;;;;5544517;25;20012;-74
2024/04/15 11:01:02;;;;;;;45.72;1.80;;;14.30;83.30;;;;;;5520288;25;20001;-74
2024/04/15 11:03:28;;;;;;;417.20;42.28;;;14.20;82.50;;;;;;5546802;25;20005;-74
2024/04/15 11:05:55;;;;;;;397.55;26.45;;;14.30;83.10;;;;;;5520775;25;20043;-75
2024/04/15 11:08:21;;;;;;;70.72;2.65;;;14.30;83.80;;;;;;5522368;25;20001;-74
2024/04/15 11:10:47;;;;;;;2.55;1.40;;;14.30;83.70;;;;;;5520112;25;20069;-74
2024/04/15 11:13:15;;;;;;;5.03;2.15;;;14.30;83.40;;;;;;5522304;25;20073;-74
2024/04/15 11:15:40;;;;;;;256.15;5.32;;;14.30;83.20;;;;;;5522280;25;20061;-74
2024/04/15 11:18:13;;;;;;;156.82;8.50;;;14.30;83.20;;;;;;5535369;25;20030;-74
2024/04/15 11:20:39;;;;;;;3.47;1.70;;;14.20;82.90;;;;;;5523204;25;20349;-74
2024/04/15 11:23:06;;;;;;;8.48;1.63;;;14.30;82.90;;;;;;5521972;25;19997;-74
2024/04/15 11:25:32;;;;;;;115.20;3.40;;;14.30;83.60;;;;;;5522497;25;20009;-74
2024/04/15 11:27:59;;;;;;;14.75;1.92;;;14.40;83.20;;;;;;5558733;25;20008;-74
2024/04/15 11:30:26;;;;;;;7.15;2.15;;;14.40;83.20;;;;;;5556108;25;20014;-74
2024/04/15 11:32:52;;;;;;;137.50;6.85;;;14.40;82.70;;;;;;5545276;25;20046;-74
2024/04/15 11:35:21;;;;;;;428.55;13.65;;;14.40;83.60;;;;;;5522150;25;20013;-74
2024/04/15 11:38:03;;;;;;;199.05;11.05;;;14.50;84.10;;;;;;5526413;25;20010;-74
2024/04/15 11:40:30;;;;;;;170.13;5.13;;;14.50;84.50;;;;;;5534190;25;20011;-74
2024/04/15 11:43:00;;;;;;;295.85;13.73;;;14.60;84.50;;;;;;5521138;25;20016;-74
2024/04/15 11:45:25;;;;;;;255.40;18.92;;;14.60;84.20;;;;;;5544741;25;20005;-74
2024/04/15 11:47:55;;;;;;;102.57;2.85;;;14.60;84.70;;;;;;5527896;25;20021;-74
2024/04/15 11:50:21;;;;;;;41.58;1.90;;;14.50;85.20;;;;;;5541424;25;20001;-74
2024/04/15 11:52:47;;;;;;;865.78;26.55;;;14.50;85.90;;;;;;5530678;25;20001;-74
2024/04/15 11:55:25;;;;;;;161.50;4.05;;;14.50;86.00;;;;;;5524645;25;20069;-74
2024/04/15 11:57:51;;;;;;;38.33;2.42;;;14.40;86.10;;;;;;5540541;25;20076;-74
2024/04/15 12:00:17;;;;;;;79.28;2.58;;;14.40;86.60;;;;;;5521677;25;20009;-74
2024/04/15 12:02:44;;;;;;;186.98;8.50;;;14.40;87.40;;;;;;5521513;25;20406;-74
2024/04/15 12:05:12;;;;;;;291.65;20.48;;;14.40;87.40;;;;;;5519439;25;20074;-74
2024/04/15 12:07:42;;;;;;;133.38;10.90;;;14.40;87.70;;;;;;5519934;25;20016;-74
2024/04/15 12:10:08;;;;;;;92.90;10.93;;;14.40;88.00;;;;;;5534676;25;20001;-74
2024/04/15 12:12:34;;;;;;;106.68;8.85;;;14.40;88.00;;;;;;5529189;25;20094;-74
2024/04/15 12:15:00;;;;;;;74.07;5.57;;;14.50;88.10;;;;;;5535321;25;19997;-74
2024/04/15 12:17:26;;;;;;;141.73;8.40;;;14.50;88.20;;;;;;5530605;25;19997;-74
2024/04/15 12:19:52;;;;;;;58.47;6.38;;;14.50;88.40;;;;;;5542140;25;20011;-74
2024/04/15 12:22:17;;;;;;;45.10;4.50;;;14.50;88.80;;;;;;5544213;25;20440;-74
2024/04/15 12:24:43;;;;;;;58.13;5.63;;;14.60;88.10;;;;;;5518226;25;20013;-74
2024/04/15 12:27:08;;;;;;;190.20;13.43;;;14.60;88.10;;;;;;5541437;25;19996;-76
2024/04/15 12:29:34;;;;;;;193.35;15.90;;;14.60;88.20;;;;;;5551105;25;19992;-76
2024/04/15 12:32:00;;;;;;;64.32;5.35;;;14.60;88.00;;;;;;5537197;25;19998;-76